Time;durP1;ratioP1;P1;durP2;ratioP2;P2;SDS_P1;SDS_P2;PMS_P1;PMS_P2;Temp;Humidity;BMP_temperature;BMP_pressure;BME280_temperature;BME280_humidity;BME280_pressure;Samples;Min_cycle;Max_cycle;Signal;HPM_P1;HPM_P2
2022/04/11 00:01:01;;;;;;;7.18;3.85;;;2.90;99.90;;;;;;6226325;22;20043;-91
2022/04/11 00:03:27;;;;;;;7.60;3.80;;;2.90;99.90;;;;;;6226345;22;20077;-91
2022/04/11 00:05:52;;;;;;;8.73;4.17;;;2.90;99.90;;;;;;6251871;22;20095;-91
2022/04/11 00:08:20;;;;;;;6.90;3.70;;;2.90;99.90;;;;;;6251803;22;20020;-90
2022/04/11 00:10:46;;;;;;;6.57;3.85;;;2.90;99.90;;;;;;6226503;22;20455;-91
2022/04/11 00:13:12;;;;;;;8.95;3.92;;;2.90;99.90;;;;;;6226629;22;20014;-92
2022/04/11 00:15:40;;;;;;;11.70;4.30;;;2.90;99.90;;;;;;6251790;22;20019;-93
2022/04/11 00:18:06;;;;;;;7.40;4.10;;;2.90;99.90;;;;;;6226602;22;20023;-93
2022/04/11 00:20:32;;;;;;;7.78;3.88;;;2.90;99.90;;;;;;6226479;22;20094;-93
2022/04/11 00:25:34;;;;;;;8.38;3.45;;;2.90;99.90;;;;;;6284930;22;20715;-93
2022/04/11 00:28:00;;;;;;;7.67;3.37;;;3.00;99.90;;;;;;6257188;22;20077;-91
2022/04/11 00:30:40;;;;;;;6.43;3.47;;;2.90;99.90;;;;;;6256754;22;20015;-92
2022/04/11 00:33:06;;;;;;;7.90;3.60;;;2.90;99.90;;;;;;6282240;22;20245;-92
2022/04/11 00:35:32;;;;;;;8.05;3.80;;;2.90;99.90;;;;;;6256925;22;20068;-93
2022/04/11 00:38:00;;;;;;;8.25;3.80;;;2.90;99.90;;;;;;6256690;22;20098;-92
2022/04/11 00:40:26;;;;;;;6.55;3.50;;;2.80;99.90;;;;;;6256666;22;20011;-92
2022/04/11 00:42:52;;;;;;;5.32;3.42;;;2.80;99.90;;;;;;6256703;22;20016;-92
2022/04/11 00:45:18;;;;;;;6.25;3.28;;;2.80;99.90;;;;;;6256715;22;20003;-92
2022/04/11 00:47:45;;;;;;;7.37;3.33;;;2.80;99.90;;;;;;6257274;22;20019;-90
2022/04/11 00:50:12;;;;;;;7.18;3.90;;;2.70;99.90;;;;;;6256800;22;20015;-93
2022/04/11 00:52:42;;;;;;;7.55;3.67;;;2.70;99.90;;;;;;6256766;22;20011;-92
2022/04/11 00:55:08;;;;;;;6.70;3.42;;;2.60;99.90;;;;;;6256700;22;20019;-91
2022/04/11 00:57:40;;;;;;;6.00;3.55;;;2.60;99.90;;;;;;6256208;22;20007;-92
2022/04/11 01:00:08;;;;;;;7.47;3.80;;;2.60;99.90;;;;;;6282040;22;20094;-92
2022/04/11 01:02:35;;;;;;;8.02;3.40;;;2.60;99.90;;;;;;6256263;22;20015;-91
2022/04/11 01:05:01;;;;;;;8.15;4.15;;;2.60;99.90;;;;;;6256649;22;20022;-92
2022/04/11 01:07:27;;;;;;;8.50;4.03;;;2.60;99.90;;;;;;6256197;22;20340;-92
2022/04/11 01:09:53;;;;;;;8.10;4.07;;;2.60;99.90;;;;;;6256038;22;20023;-93
2022/04/11 01:12:21;;;;;;;8.40;3.80;;;2.60;99.90;;;;;;6256465;22;20046;-94
2022/04/11 01:14:47;;;;;;;9.32;3.80;;;2.60;99.90;;;;;;6256516;22;20019;-94
2022/04/11 01:17:13;;;;;;;9.13;4.25;;;2.60;99.90;;;;;;6256677;22;20022;-92
2022/04/11 01:19:38;;;;;;;9.60;3.30;;;2.50;99.90;;;;;;6256490;22;20086;-92
2022/04/11 01:22:04;;;;;;;7.07;3.43;;;2.60;99.90;;;;;;6256553;22;20037;-92
2022/04/11 01:24:31;;;;;;;7.32;3.10;;;2.60;99.90;;;;;;6256416;22;20336;-92
2022/04/11 01:26:59;;;;;;;9.25;3.20;;;2.60;99.90;;;;;;6256201;22;20020;-92
2022/04/11 01:29:28;;;;;;;9.50;3.40;;;2.60;99.90;;;;;;6256133;22;20015;-94
2022/04/11 01:31:54;;;;;;;6.95;3.10;;;2.60;99.90;;;;;;6281624;22;20015;-94
2022/04/11 01:41:57;;;;;;;5.65;2.92;;;2.50;99.90;;;;;;6307598;22;20386;-92
2022/04/11 01:48:18;;;;;;;6.13;2.70;;;2.50;99.90;;;;;;6296954;22;20022;-94
2022/04/11 01:54:19;;;;;;;4.47;2.50;;;2.50;99.90;;;;;;6245153;22;20267;-92
2022/04/11 01:56:44;;;;;;;8.48;2.75;;;2.50;99.90;;;;;;6196152;23;20016;-93
2022/04/11 01:59:12;;;;;;;7.93;2.87;;;2.50;99.90;;;;;;6195919;23;20024;-93
2022/04/11 02:01:38;;;;;;;6.20;2.92;;;2.50;99.90;;;;;;6195529;23;20020;-93
2022/04/11 02:14:25;;;;;;;7.57;2.63;;;2.50;99.90;;;;;;6271347;22;20074;-91
2022/04/11 02:16:50;;;;;;;6.45;2.70;;;2.50;99.90;;;;;;6195375;23;20079;-91
2022/04/11 02:19:16;;;;;;;6.78;2.83;;;2.50;99.90;;;;;;6195328;23;20493;-92
2022/04/11 02:21:42;;;;;;;5.80;2.77;;;2.50;99.90;;;;;;6195343;23;20020;-90
2022/04/11 02:24:08;;;;;;;5.60;2.90;;;2.50;99.90;;;;;;6195232;23;20012;-90
2022/04/11 02:26:33;;;;;;;5.80;2.77;;;2.40;99.90;;;;;;6195314;23;20020;-91
2022/04/11 02:28:59;;;;;;;5.20;2.50;;;2.50;99.90;;;;;;6195424;23;20438;-90
2022/04/11 02:31:25;;;;;;;6.15;2.83;;;2.40;99.90;;;;;;6195363;23;20020;-91
2022/04/11 02:33:51;;;;;;;5.47;2.65;;;2.50;99.90;;;;;;6194853;23;20016;-91
2022/04/11 02:36:16;;;;;;;5.20;2.55;;;2.40;99.90;;;;;;6195084;23;20020;-89
2022/04/11 02:38:42;;;;;;;7.30;3.00;;;2.40;99.90;;;;;;6195154;23;20066;-90
2022/04/11 02:41:08;;;;;;;6.40;2.73;;;2.30;99.90;;;;;;6195062;23;20022;-90
2022/04/11 02:43:33;;;;;;;7.00;2.93;;;2.20;99.90;;;;;;6195263;23;20016;-89
2022/04/11 02:45:59;;;;;;;9.32;2.80;;;2.20;99.90;;;;;;6195097;23;20055;-89
2022/04/11 02:48:25;;;;;;;6.90;3.03;;;2.10;99.90;;;;;;6195153;23;20012;-94
2022/04/11 02:50:51;;;;;;;9.03;2.87;;;2.10;99.90;;;;;;6195021;23;20016;-93
2022/04/11 02:53:17;;;;;;;6.40;3.10;;;2.10;99.90;;;;;;6194942;23;20008;-94
2022/04/11 02:55:58;;;;;;;7.13;2.88;;;2.10;99.90;;;;;;6194857;23;20031;-89
2022/04/11 02:58:23;;;;;;;6.70;3.08;;;2.00;99.90;;;;;;6194427;23;20091;-89
2022/04/11 03:00:49;;;;;;;7.97;3.08;;;2.00;99.90;;;;;;6219499;23;20548;-89
2022/04/11 03:03:15;;;;;;;5.00;2.33;;;2.00;99.90;;;;;;6194847;23;20044;-89
2022/04/11 03:05:40;;;;;;;7.15;3.10;;;2.00;99.90;;;;;;6194993;23;20028;-89
2022/04/11 03:08:06;;;;;;;6.83;2.80;;;2.00;99.90;;;;;;6194774;23;20505;-89
2022/04/11 03:10:32;;;;;;;6.97;3.55;;;1.90;99.90;;;;;;6194709;23;20056;-90
2022/04/11 03:12:58;;;;;;;6.10;2.87;;;1.90;99.90;;;;;;6194743;23;20016;-90
2022/04/11 03:15:23;;;;;;;4.80;2.47;;;1.90;99.90;;;;;;6194442;23;20024;-90
2022/04/11 03:17:49;;;;;;;7.00;2.77;;;1.80;99.90;;;;;;6219585;23;20016;-90
2022/04/11 03:20:15;;;;;;;5.50;2.80;;;1.80;99.90;;;;;;6194509;23;20094;-88
2022/04/11 03:22:40;;;;;;;6.25;2.80;;;1.80;99.90;;;;;;6244725;23;20020;-89
2022/04/11 03:25:07;;;;;;;6.50;3.13;;;1.70;99.90;;;;;;6194365;23;20016;-89
2022/04/11 03:27:32;;;;;;;6.28;2.92;;;1.70;99.90;;;;;;6194135;23;20468;-88
2022/04/11 03:29:58;;;;;;;6.95;2.97;;;1.70;99.90;;;;;;6194421;23;20018;-89
2022/04/11 03:32:24;;;;;;;6.55;3.40;;;1.70;99.90;;;;;;6195374;23;20453;-88
2022/04/11 03:34:51;;;;;;;6.87;2.80;;;1.80;99.90;;;;;;6196267;23;20023;-89
2022/04/11 03:37:17;;;;;;;7.30;3.00;;;1.80;99.90;;;;;;6196236;23;20023;-89
2022/04/11 03:39:43;;;;;;;6.60;3.17;;;1.90;99.90;;;;;;6195968;23;20095;-89
2022/04/11 03:42:09;;;;;;;6.18;2.97;;;1.90;99.90;;;;;;6196156;23;20023;-88
2022/04/11 03:44:37;;;;;;;6.50;3.35;;;2.00;99.90;;;;;;6196336;23;20020;-89
2022/04/11 03:47:03;;;;;;;8.88;3.28;;;2.00;99.90;;;;;;6221323;23;20446;-89
2022/04/11 03:49:29;;;;;;;6.47;2.90;;;2.10;99.90;;;;;;6196365;23;20039;-89
2022/04/11 03:51:55;;;;;;;7.13;2.80;;;2.20;99.90;;;;;;6195948;23;20016;-89
2022/04/11 03:54:21;;;;;;;6.13;2.90;;;2.20;99.90;;;;;;6196146;23;20026;-90
2022/04/11 03:56:46;;;;;;;6.05;2.80;;;2.20;99.90;;;;;;6196575;23;20021;-90
2022/04/11 03:59:12;;;;;;;6.40;3.20;;;2.20;99.90;;;;;;6196587;23;20020;-90
2022/04/11 04:01:38;;;;;;;5.68;2.88;;;2.20;99.90;;;;;;6196676;23;20016;-90
2022/04/11 04:04:04;;;;;;;5.28;3.10;;;2.20;99.90;;;;;;6196403;23;20020;-90
2022/04/11 04:06:29;;;;;;;7.30;2.83;;;2.20;99.90;;;;;;6196264;23;20020;-90
2022/04/11 04:08:55;;;;;;;5.10;3.00;;;2.20;99.90;;;;;;6196679;23;20016;-90
2022/04/11 04:11:21;;;;;;;6.57;3.07;;;2.20;99.90;;;;;;6196339;23;20020;-90
2022/04/11 04:13:47;;;;;;;6.00;2.87;;;2.20;99.90;;;;;;6195962;23;20071;-90
2022/04/11 04:16:12;;;;;;;5.78;2.85;;;2.20;99.90;;;;;;6215888;23;20066;-89
2022/04/11 04:18:38;;;;;;;5.22;3.13;;;2.10;99.90;;;;;;6220953;23;20027;-90
2022/04/11 04:21:04;;;;;;;7.53;3.42;;;2.10;99.90;;;;;;6246064;23;20020;-89
2022/04/11 04:23:29;;;;;;;5.60;3.17;;;2.10;99.90;;;;;;6221013;23;20012;-90
2022/04/11 04:25:56;;;;;;;6.25;3.00;;;2.10;99.90;;;;;;6246250;23;20020;-89
2022/04/11 04:28:22;;;;;;;6.82;3.30;;;2.10;99.90;;;;;;6220974;23;20008;-89
2022/04/11 04:30:47;;;;;;;10.93;3.97;;;2.10;99.90;;;;;;6220666;23;20389;-88
2022/04/11 04:33:13;;;;;;;6.32;3.45;;;2.10;99.90;;;;;;6246021;23;20337;-89
2022/04/11 04:35:39;;;;;;;6.80;3.23;;;2.10;99.90;;;;;;6220877;23;20039;-88
2022/04/11 04:38:05;;;;;;;5.78;2.95;;;2.10;99.90;;;;;;6246657;23;20523;-88
2022/04/11 04:40:31;;;;;;;6.68;3.05;;;2.10;99.90;;;;;;6247772;23;20020;-91
2022/04/11 04:42:57;;;;;;;5.95;3.13;;;2.10;99.90;;;;;;6229751;22;20018;-88
2022/04/11 04:45:23;;;;;;;10.43;3.17;;;2.10;99.90;;;;;;6251477;22;20129;-88
2022/04/11 04:47:49;;;;;;;6.70;2.92;;;2.10;99.90;;;;;;6256823;22;20016;-92
2022/04/11 04:50:15;;;;;;;6.80;2.93;;;2.10;99.90;;;;;;6235772;22;20476;-90
2022/04/11 04:52:41;;;;;;;7.35;2.78;;;2.10;99.90;;;;;;6226513;22;20246;-93
2022/04/11 04:55:07;;;;;;;6.28;2.88;;;2.10;99.90;;;;;;6226361;22;20008;-90
2022/04/11 04:57:34;;;;;;;7.18;3.30;;;2.10;99.90;;;;;;6226361;22;20020;-91
2022/04/11 05:00:00;;;;;;;8.63;4.38;;;2.20;99.90;;;;;;6226056;22;20341;-93
2022/04/11 05:02:26;;;;;;;8.60;3.70;;;2.10;99.90;;;;;;6226051;22;20049;-92
2022/04/11 05:04:51;;;;;;;6.05;3.70;;;2.20;99.90;;;;;;6225815;22;20047;-90
2022/04/11 05:07:17;;;;;;;6.40;3.42;;;2.10;99.90;;;;;;6224778;22;20024;-90
2022/04/11 05:09:43;;;;;;;7.77;3.63;;;2.20;99.90;;;;;;6226186;22;20016;-91
2022/04/11 05:12:09;;;;;;;7.30;3.63;;;2.20;99.90;;;;;;6225840;22;20475;-91
2022/04/11 05:14:34;;;;;;;7.50;3.75;;;2.20;99.90;;;;;;6225839;22;20016;-91
2022/04/11 05:17:00;;;;;;;6.28;3.35;;;2.20;99.90;;;;;;6226028;22;20020;-91
2022/04/11 05:19:26;;;;;;;5.82;3.28;;;2.20;99.90;;;;;;6225994;22;20018;-91
2022/04/11 05:21:51;;;;;;;8.13;3.93;;;2.30;99.90;;;;;;6251068;22;20019;-90
2022/04/11 05:24:17;;;;;;;7.18;3.42;;;2.30;99.90;;;;;;6225818;22;20016;-91
2022/04/11 05:26:43;;;;;;;9.00;3.58;;;2.30;99.90;;;;;;6225305;22;20015;-89
2022/04/11 05:29:08;;;;;;;7.25;3.85;;;2.30;99.90;;;;;;6250187;22;20047;-88
2022/04/11 05:31:34;;;;;;;7.60;3.57;;;2.30;99.90;;;;;;6277154;22;20020;-87
2022/04/11 05:34:01;;;;;;;10.48;3.80;;;2.30;99.90;;;;;;6250109;22;20016;-91
2022/04/11 05:36:27;;;;;;;6.35;3.22;;;2.30;99.90;;;;;;6226195;22;20090;-89
2022/04/11 05:38:53;;;;;;;7.43;3.30;;;2.30;99.90;;;;;;6225839;22;20125;-88
2022/04/11 05:41:18;;;;;;;7.82;3.70;;;2.30;99.90;;;;;;6225174;22;20027;-88
2022/04/11 05:43:44;;;;;;;6.93;3.83;;;2.30;99.90;;;;;;6225083;22;20094;-88
2022/04/11 05:46:10;;;;;;;5.43;3.53;;;2.30;99.90;;;;;;6250170;22;20051;-90
2022/04/11 05:48:36;;;;;;;6.97;3.55;;;2.40;99.90;;;;;;6225193;22;20012;-90
2022/04/11 05:51:28;;;;;;;9.07;4.18;;;2.40;99.90;;;;;;6225097;22;20016;-89
2022/04/11 05:53:54;;;;;;;8.88;3.47;;;2.50;99.90;;;;;;6225996;22;20023;-88
2022/04/11 05:56:19;;;;;;;8.35;4.18;;;2.60;99.90;;;;;;6250464;22;20011;-88
2022/04/11 05:58:45;;;;;;;7.43;3.60;;;2.60;99.90;;;;;;6225488;22;20107;-89
2022/04/11 06:01:11;;;;;;;6.03;3.50;;;2.60;99.90;;;;;;6225329;22;20022;-89
2022/04/11 06:03:37;;;;;;;6.97;3.22;;;2.60;99.90;;;;;;6225213;22;20019;-89
2022/04/11 06:06:04;;;;;;;7.75;3.50;;;2.70;99.90;;;;;;6224994;22;20022;-89
2022/04/11 06:08:30;;;;;;;6.65;3.53;;;2.70;99.90;;;;;;6225222;22;20012;-89
2022/04/11 06:10:55;;;;;;;8.37;3.70;;;2.80;99.90;;;;;;6225159;22;20057;-89
2022/04/11 06:13:21;;;;;;;6.53;3.67;;;2.80;99.90;;;;;;6225113;22;20051;-88
2022/04/11 06:15:47;;;;;;;6.18;3.30;;;2.80;99.90;;;;;;6224584;22;20028;-88
2022/04/11 06:18:15;;;;;;;6.50;3.53;;;2.90;99.90;;;;;;6224798;22;20016;-90
2022/04/11 06:20:45;;;;;;;8.02;3.58;;;2.90;99.90;;;;;;6225312;22;20055;-93
2022/04/11 06:23:11;;;;;;;7.88;3.40;;;2.90;99.90;;;;;;6225247;22;20023;-90
2022/04/11 06:25:36;;;;;;;5.60;3.40;;;3.00;99.90;;;;;;6224944;22;20015;-90
2022/04/11 06:28:02;;;;;;;6.67;3.13;;;3.00;99.90;;;;;;6225367;22;20015;-91
2022/04/11 06:30:28;;;;;;;6.90;3.03;;;3.10;99.90;;;;;;6225429;22;20019;-90
2022/04/11 06:32:53;;;;;;;6.22;3.25;;;3.20;99.90;;;;;;6225257;22;20500;-91
2022/04/11 06:35:19;;;;;;;5.88;2.90;;;3.20;99.90;;;;;;6225548;22;20020;-91
2022/04/11 06:37:45;;;;;;;7.53;3.20;;;3.30;99.90;;;;;;6225686;22;20447;-90
2022/04/11 06:40:11;;;;;;;8.20;3.67;;;3.30;99.90;;;;;;6225363;22;20019;-89
2022/04/11 06:42:37;;;;;;;6.63;3.07;;;3.40;99.90;;;;;;6225499;22;20094;-90
2022/04/11 06:45:04;;;;;;;8.48;3.13;;;3.40;99.90;;;;;;6225386;22;20140;-91
2022/04/11 06:47:33;;;;;;;7.22;2.88;;;3.50;99.90;;;;;;6224953;22;20400;-90
2022/04/11 06:49:59;;;;;;;5.82;3.08;;;3.50;99.90;;;;;;6225138;22;20016;-90
2022/04/11 06:52:24;;;;;;;7.18;2.90;;;3.60;99.90;;;;;;6225538;22;20012;-90
2022/04/11 06:54:50;;;;;;;6.65;3.17;;;3.70;99.90;;;;;;6225064;22;20318;-91
2022/04/11 06:57:16;;;;;;;10.00;3.28;;;3.80;99.90;;;;;;6225144;22;20027;-89
2022/04/11 06:59:42;;;;;;;11.50;2.90;;;3.80;99.90;;;;;;6224974;22;20105;-89
2022/04/11 07:02:08;;;;;;;5.97;2.53;;;3.90;99.90;;;;;;6225183;22;20020;-90
2022/04/11 07:04:36;;;;;;;5.83;2.73;;;3.90;99.90;;;;;;6225242;22;20018;-91
2022/04/11 07:07:02;;;;;;;6.88;2.75;;;4.00;99.90;;;;;;6224843;22;20552;-91
2022/04/11 07:09:28;;;;;;;8.30;3.03;;;4.00;99.90;;;;;;6224822;22;20043;-90
2022/04/11 07:11:54;;;;;;;7.00;3.13;;;4.10;99.90;;;;;;6225153;22;20016;-90
2022/04/11 07:14:20;;;;;;;7.35;2.75;;;4.20;99.90;;;;;;6224761;22;20022;-91
2022/04/11 07:17:02;;;;;;;;;;;;;;;;;;;;;
2022/04/11 07:19:41;;;;;;;9.80;3.17;;;4.30;99.90;;;;;;6250135;22;20019;-93
2022/04/11 07:23:22;;;;;;;;;;;;;;;;;;;;;
2022/04/11 07:35:59;;;;;;;7.25;2.90;;;4.80;99.90;;;;;;6277778;22;20019;-89
2022/04/11 07:38:24;;;;;;;6.88;2.95;;;4.90;99.90;;;;;;6226378;22;20403;-88
2022/04/11 07:40:50;;;;;;;6.87;2.50;;;5.00;99.90;;;;;;6256693;22;20098;-95
2022/04/11 07:43:17;;;;;;;7.63;2.53;;;5.10;99.90;;;;;;6228778;22;20019;-88
2022/04/11 07:53:24;;;;;;;5.97;2.35;;;5.50;99.90;;;;;;6277119;22;20507;-91
2022/04/11 07:55:50;;;;;;;5.38;1.95;;;5.60;99.90;;;;;;6246710;22;20023;-91
2022/04/11 07:58:18;;;;;;;7.07;2.00;;;5.70;99.90;;;;;;6283922;22;20074;-88
2022/04/11 08:00:45;;;;;;;5.57;2.03;;;5.80;99.90;;;;;;6274819;22;20032;-88
2022/04/11 08:03:11;;;;;;;6.40;2.00;;;6.00;99.90;;;;;;6224356;22;20023;-88
2022/04/11 08:05:36;;;;;;;7.80;2.53;;;6.10;99.90;;;;;;6224607;22;20015;-88
2022/04/11 08:08:02;;;;;;;6.90;2.00;;;6.20;99.90;;;;;;6222748;22;20483;-87
2022/04/11 08:10:28;;;;;;;9.70;2.47;;;6.30;99.90;;;;;;6272994;22;20016;-88
2022/04/11 08:12:59;;;;;;;8.63;2.73;;;6.50;99.90;;;;;;6222286;22;20011;-90
2022/04/11 08:15:32;;;;;;;6.13;1.60;;;6.70;99.90;;;;;;6247645;22;20384;-88
2022/04/11 08:17:58;;;;;;;8.93;2.28;;;6.80;99.90;;;;;;6248286;22;20046;-88
2022/04/11 08:20:25;;;;;;;5.60;1.83;;;7.00;99.90;;;;;;6222097;22;20099;-88
2022/04/11 08:22:51;;;;;;;5.38;1.60;;;7.10;99.90;;;;;;6276969;22;20102;-88
2022/04/11 08:25:17;;;;;;;5.17;1.50;;;7.30;99.90;;;;;;6249954;22;20030;-87
2022/04/11 08:27:43;;;;;;;4.37;1.37;;;7.40;99.90;;;;;;6278605;22;20019;-87
2022/04/11 08:30:49;;;;;;;6.82;1.20;;;7.50;99.90;;;;;;6278187;22;20023;-87
2022/04/11 08:33:35;;;;;;;7.50;1.58;;;7.60;99.90;;;;;;6251109;22;20041;-86
2022/04/11 08:36:01;;;;;;;4.45;1.15;;;7.70;99.90;;;;;;6250881;22;20020;-88
2022/04/11 08:38:26;;;;;;;5.87;1.03;;;7.80;99.90;;;;;;6225479;22;20341;-86
2022/04/11 08:40:54;;;;;;;3.37;1.47;;;7.80;99.90;;;;;;6225388;22;20020;-87
2022/04/11 08:43:23;;;;;;;6.82;2.17;;;7.90;99.90;;;;;;6250864;22;20510;-86
2022/04/11 08:45:53;;;;;;;4.55;1.17;;;7.90;99.90;;;;;;6276526;22;20022;-87
2022/04/11 08:48:21;;;;;;;7.10;1.42;;;8.00;99.90;;;;;;6250779;22;20399;-88
2022/04/11 08:50:47;;;;;;;6.40;2.03;;;8.00;99.90;;;;;;6250902;22;20024;-88
2022/04/11 08:53:13;;;;;;;5.90;1.27;;;8.10;99.90;;;;;;6250212;22;20019;-87
2022/04/11 08:55:39;;;;;;;3.70;1.25;;;8.10;99.90;;;;;;6250785;22;20090;-85
2022/04/11 08:58:05;;;;;;;5.15;1.63;;;8.20;99.90;;;;;;6250229;22;20105;-86
2022/04/11 09:00:31;;;;;;;4.50;1.70;;;8.20;99.90;;;;;;6277600;22;20384;-87
2022/04/11 09:02:57;;;;;;;6.43;1.77;;;8.40;99.90;;;;;;6277867;22;20020;-86
2022/04/11 09:05:24;;;;;;;4.50;1.90;;;8.50;99.90;;;;;;6225399;22;20023;-86
2022/04/11 09:07:55;;;;;;;8.95;1.60;;;8.50;99.90;;;;;;6250697;22;20090;-87
2022/04/11 09:10:23;;;;;;;4.93;1.45;;;8.60;99.90;;;;;;6225342;22;20030;-87
2022/04/11 09:12:54;;;;;;;5.78;1.60;;;8.70;99.90;;;;;;6250363;22;20012;-87
2022/04/11 09:15:21;;;;;;;5.68;1.52;;;8.80;99.90;;;;;;6277762;22;20034;-87
2022/04/11 09:17:47;;;;;;;3.78;1.48;;;8.80;99.90;;;;;;6250582;22;20012;-86
2022/04/11 09:20:18;;;;;;;5.95;1.52;;;8.90;99.90;;;;;;6250291;22;20026;-86
2022/04/11 09:22:44;;;;;;;7.57;1.42;;;8.90;99.90;;;;;;6277548;22;20453;-85
2022/04/11 09:25:14;;;;;;;5.13;1.30;;;8.90;99.90;;;;;;6225175;22;20020;-87
2022/04/11 09:27:41;;;;;;;5.80;1.27;;;9.00;99.90;;;;;;6277416;22;20042;-86
2022/04/11 09:30:26;;;;;;;4.78;1.10;;;9.00;99.90;;;;;;6249959;22;20023;-87
2022/04/11 09:32:58;;;;;;;4.18;1.13;;;9.10;99.90;;;;;;6250387;22;20020;-87
2022/04/11 09:35:28;;;;;;;4.30;1.10;;;9.20;99.90;;;;;;6250212;22;20457;-87
2022/04/11 09:38:12;;;;;;;4.82;1.17;;;9.20;99.90;;;;;;6277315;22;20015;-86
2022/04/11 09:40:52;;;;;;;3.92;1.20;;;9.20;99.90;;;;;;6277027;22;20015;-85
2022/04/11 09:43:27;;;;;;;5.13;0.90;;;9.30;99.90;;;;;;6277473;22;20098;-86
2022/04/11 09:45:54;;;;;;;6.82;1.38;;;9.30;99.90;;;;;;6275615;22;20023;-85
2022/04/11 09:48:22;;;;;;;7.43;1.33;;;9.40;99.90;;;;;;6277224;22;20346;-89
2022/04/11 09:50:49;;;;;;;5.25;1.20;;;9.50;99.90;;;;;;6224842;22;20022;-86
2022/04/11 09:53:24;;;;;;;;;;;9.50;99.90;;;;;;6250314;22;20461;-85
2022/04/11 09:55:53;;;;;;;6.18;1.50;;;9.60;99.20;;;;;;6250054;22;19915;-86
2022/04/11 09:58:20;;;;;;;4.35;1.30;;;9.60;99.90;;;;;;6277055;22;20019;-89
2022/04/11 10:00:47;;;;;;;7.03;1.70;;;9.70;99.90;;;;;;6277031;22;20058;-86
2022/04/11 10:03:13;;;;;;;3.15;1.25;;;9.70;99.80;;;;;;6249787;22;20026;-86
2022/04/11 10:05:40;;;;;;;5.50;1.50;;;9.80;99.50;;;;;;6250033;22;20024;-86
2022/04/11 10:08:11;;;;;;;7.13;1.77;;;9.80;99.90;;;;;;6275450;22;20077;-87
2022/04/11 10:10:39;;;;;;;3.88;1.25;;;9.90;99.90;;;;;;6277026;22;20024;-86
2022/04/11 10:13:11;;;;;;;9.60;1.63;;;10.00;99.50;;;;;;6277009;22;20523;-86
2022/04/11 10:15:38;;;;;;;4.88;1.48;;;10.00;98.60;;;;;;6276941;22;20023;-87
2022/04/11 10:18:05;;;;;;;5.90;1.50;;;10.00;98.90;;;;;;6247697;22;20022;-86
2022/04/11 10:20:36;;;;;;;5.72;1.65;;;10.20;99.60;;;;;;6275362;22;20027;-87
2022/04/11 10:23:37;;;;;;;5.15;1.30;;;10.30;98.50;;;;;;6250089;22;20345;-86
2022/04/11 10:26:14;;;;;;;4.15;1.20;;;10.30;98.20;;;;;;6250624;22;20030;-85
2022/04/11 10:28:46;;;;;;;4.57;1.40;;;10.30;97.20;;;;;;6276826;22;20022;-85
2022/04/11 10:31:13;;;;;;;6.40;1.50;;;10.40;96.60;;;;;;6224274;22;20026;-87
2022/04/11 10:33:48;;;;;;;4.60;1.45;;;10.40;94.90;;;;;;6276727;22;20008;-87
2022/04/11 10:36:28;;;;;;;6.18;1.25;;;10.50;94.40;;;;;;6249751;22;20023;-86
2022/04/11 10:39:12;;;;;;;4.22;1.00;;;10.50;92.80;;;;;;6276672;22;20437;-88
2022/04/11 10:41:56;;;;;;;4.30;1.52;;;10.60;93.60;;;;;;6249081;22;20020;-87
2022/04/11 10:44:37;;;;;;;4.80;1.40;;;10.70;93.70;;;;;;6276611;22;20015;-87
2022/04/11 10:47:09;;;;;;;4.63;1.00;;;10.80;93.30;;;;;;6276609;22;20065;-85
2022/04/11 10:49:50;;;;;;;3.85;1.35;;;10.90;92.60;;;;;;6247979;22;20453;-86
2022/04/11 10:52:27;;;;;;;4.35;1.15;;;11.00;92.70;;;;;;6276646;22;20016;-87
2022/04/11 10:55:03;;;;;;;4.22;1.30;;;11.10;91.70;;;;;;6213839;23;20021;-86
2022/04/11 10:57:43;;;;;;;4.82;1.35;;;11.10;90.60;;;;;;6215682;23;20023;-85
2022/04/11 11:00:17;;;;;;;4.85;1.40;;;11.10;90.50;;;;;;6215373;23;20024;-86
2022/04/11 11:02:52;;;;;;;6.60;1.30;;;11.20;89.40;;;;;;6188976;23;20029;-86
2022/04/11 11:05:48;;;;;;;4.05;1.20;;;11.20;90.80;;;;;;6188873;23;20016;-85
2022/04/11 11:08:17;;;;;;;3.40;1.10;;;11.40;91.70;;;;;;6211740;23;20048;-86
2022/04/11 11:10:53;;;;;;;6.32;2.13;;;11.40;91.20;;;;;;6188873;23;20056;-85
2022/04/11 11:13:30;;;;;;;4.00;1.63;;;11.60;90.80;;;;;;6215334;23;20017;-87
2022/04/11 11:15:58;;;;;;;5.20;1.48;;;11.70;89.40;;;;;;6213940;23;20017;-87
2022/04/11 11:19:02;;;;;;;4.45;1.70;;;11.70;89.00;;;;;;6216138;23;20020;-85
2022/04/11 11:21:28;;;;;;;5.68;1.80;;;11.80;91.10;;;;;;6069887;23;20464;-86
2022/04/11 11:24:11;;;;;;;5.33;1.70;;;11.90;89.90;;;;;;6070251;23;20191;-86
2022/04/11 11:26:55;;;;;;;5.10;1.58;;;11.90;86.50;;;;;;6164244;23;20027;-86
2022/04/11 11:29:33;;;;;;;5.90;1.95;;;11.90;87.60;;;;;;6189045;23;20381;-86
2022/04/11 11:32:04;;;;;;;5.90;1.50;;;12.00;88.10;;;;;;6188771;23;20021;-86
2022/04/11 11:34:32;;;;;;;5.60;2.20;;;12.00;85.70;;;;;;6215096;23;20016;-86
2022/04/11 11:37:00;;;;;;;4.63;1.95;;;12.10;85.50;;;;;;6213698;23;20346;-86
2022/04/11 11:39:26;;;;;;;4.43;1.98;;;12.20;86.00;;;;;;6215300;23;20035;-86
2022/04/11 11:41:53;;;;;;;;;;;12.20;88.40;;;;;;6189185;23;20103;-87
2022/04/11 11:44:20;;;;;;;5.10;2.13;;;12.40;90.10;;;;;;6215333;23;19920;-87
2022/04/11 11:46:49;;;;;;;6.63;1.77;;;12.50;89.70;;;;;;6188555;23;20039;-87
2022/04/11 11:49:14;;;;;;;5.03;2.17;;;12.60;88.70;;;;;;6213878;23;20028;-86
2022/04/11 11:51:40;;;;;;;5.40;2.10;;;12.70;88.70;;;;;;6188509;23;20021;-87
2022/04/11 11:54:07;;;;;;;6.75;2.50;;;12.70;87.20;;;;;;6165482;23;20108;-88
2022/04/11 11:56:59;;;;;;;5.33;2.10;;;12.70;85.50;;;;;;6166019;23;20083;-87
2022/04/11 11:59:25;;;;;;;5.68;1.95;;;12.80;85.20;;;;;;6186369;23;20027;-88
2022/04/11 12:04:39;;;;;;;5.88;2.67;;;12.80;83.40;;;;;;6174955;23;20597;-87
2022/04/11 12:07:06;;;;;;;6.70;2.40;;;12.80;83.50;;;;;;6190719;23;20143;-87
2022/04/11 12:09:36;;;;;;;6.53;2.70;;;12.80;84.10;;;;;;6190507;23;20013;-87
2022/04/11 12:12:08;;;;;;;7.75;2.55;;;12.80;84.60;;;;;;6165743;23;20038;-88
2022/04/11 12:15:06;;;;;;;7.22;2.63;;;12.90;84.40;;;;;;6165616;23;20512;-88
2022/04/11 12:17:33;;;;;;;5.07;2.15;;;12.90;84.50;;;;;;6165937;23;20016;-87
2022/04/11 12:20:11;;;;;;;;;;;13.00;82.10;;;;;;6166240;23;20063;-89
2022/04/11 12:22:37;;;;;;;7.13;2.70;;;12.90;84.80;;;;;;6165326;23;19916;-88
2022/04/11 12:25:23;;;;;;;5.75;2.15;;;12.90;82.80;;;;;;6165725;23;20064;-88
2022/04/11 12:27:49;;;;;;;6.13;2.67;;;12.90;78.50;;;;;;6165412;23;20071;-88
2022/04/11 12:30:15;;;;;;;;;;;12.90;79.70;;;;;;6166107;23;20342;-88
2022/04/11 12:32:41;;;;;;;6.25;2.63;;;12.90;79.70;;;;;;6190504;23;19916;-88
2022/04/11 12:35:20;;;;;;;8.47;2.97;;;12.90;79.40;;;;;;6165591;23;20474;-88
2022/04/11 12:37:49;;;;;;;6.13;2.70;;;12.90;79.00;;;;;;6165614;23;20013;-88
2022/04/11 12:40:17;;;;;;;6.30;2.50;;;13.00;78.10;;;;;;6190451;23;20025;-87
2022/04/11 12:42:43;;;;;;;7.68;2.50;;;13.00;77.20;;;;;;6190468;23;20024;-89
2022/04/11 12:45:13;;;;;;;8.07;3.08;;;13.00;76.00;;;;;;6165678;23;20107;-88
2022/04/11 12:48:01;;;;;;;5.13;2.60;;;12.90;76.10;;;;;;6165283;23;20048;-88
2022/04/11 12:50:27;;;;;;;5.82;2.33;;;13.00;76.90;;;;;;6217032;23;20015;-89
2022/04/11 12:52:53;;;;;;;5.65;2.63;;;13.00;76.80;;;;;;6168147;23;20056;-90
2022/04/11 12:55:30;;;;;;;6.57;2.53;;;13.00;78.80;;;;;;6195128;23;20042;-88
2022/04/11 12:58:21;;;;;;;6.90;2.75;;;13.10;77.20;;;;;;6194995;23;20027;-87
2022/04/11 13:00:57;;;;;;;6.30;2.70;;;13.10;74.90;;;;;;6220135;23;20020;-89
2022/04/11 13:03:23;;;;;;;6.65;2.60;;;13.10;74.50;;;;;;6195491;23;20020;-89
2022/04/11 13:05:49;;;;;;;6.78;2.72;;;13.20;73.90;;;;;;6245233;23;20024;-88
2022/04/11 13:08:15;;;;;;;7.82;3.03;;;13.20;72.80;;;;;;6195413;23;20076;-87
2022/04/11 13:10:41;;;;;;;8.63;3.03;;;13.20;72.70;;;;;;6247011;23;20028;-90
2022/04/11 13:13:06;;;;;;;6.13;2.70;;;13.10;72.60;;;;;;6195114;23;20019;-88
2022/04/11 13:18:23;;;;;;;5.37;2.27;;;13.10;72.70;;;;;;6245542;23;20099;-88
2022/04/11 13:18:24;;;;;;;5.32;2.80;;;13.10;72.50;;;;;;6219874;23;20759;-88
2022/04/11 13:20:49;;;;;;;6.82;2.88;;;13.10;72.30;;;;;;6195038;23;20074;-88
2022/04/11 13:23:15;;;;;;;8.47;2.63;;;13.10;72.00;;;;;;6195012;23;20523;-89
2022/04/11 13:25:41;;;;;;;7.23;2.90;;;13.10;72.10;;;;;;6219877;23;20558;-89
2022/04/11 13:28:09;;;;;;;5.38;2.95;;;13.10;72.30;;;;;;6245399;23;20066;-88
2022/04/11 13:30:35;;;;;;;6.63;3.28;;;13.10;72.80;;;;;;6195028;23;20020;-87
2022/04/11 13:33:01;;;;;;;5.88;2.90;;;13.10;72.70;;;;;;6246887;23;20039;-89
2022/04/11 13:35:27;;;;;;;6.72;2.67;;;13.20;72.70;;;;;;6195230;23;20346;-88
2022/04/11 13:37:53;;;;;;;6.00;2.90;;;13.20;72.60;;;;;;6195084;23;20026;-89
2022/04/11 13:40:18;;;;;;;9.50;3.33;;;13.30;72.30;;;;;;6194879;23;20271;-90
2022/04/11 13:42:44;;;;;;;6.83;2.70;;;13.30;71.90;;;;;;6220295;23;20104;-89
2022/04/11 13:45:10;;;;;;;5.10;2.70;;;13.30;70.50;;;;;;6194884;23;20065;-87
2022/04/11 13:47:36;;;;;;;5.53;2.80;;;13.20;70.80;;;;;;6219730;23;20023;-87
2022/04/11 13:50:02;;;;;;;8.02;3.15;;;13.20;70.90;;;;;;6219632;23;20016;-87
2022/04/11 13:52:28;;;;;;;5.53;2.60;;;13.10;70.70;;;;;;6219639;23;20023;-87
2022/04/11 13:54:53;;;;;;;6.50;3.00;;;13.10;70.20;;;;;;6247037;22;20266;-88